sensor_id;sensor_type;location;lat;lon;timestamp;P1;durP1;ratioP1;P2;durP2;ratioP2
12232;SDS011;6179;51.748;8.728;2023-06-26T00:02:01;4.40;;;2.90;;
12232;SDS011;6179;51.748;8.728;2023-06-26T00:08:01;6.57;;;3.20;;
12232;SDS011;6179;51.748;8.728;2023-06-26T00:14:02;2.93;;;2.30;;
12232;SDS011;6179;51.748;8.728;2023-06-26T00:20:03;6.20;;;3.60;;
12232;SDS011;6179;51.748;8.728;2023-06-26T00:26:08;3.00;;;2.77;;
12232;SDS011;6179;51.748;8.728;2023-06-26T00:32:10;4.33;;;2.90;;
12232;SDS011;6179;51.748;8.728;2023-06-26T00:38:11;4.23;;;3.83;;
12232;SDS011;6179;51.748;8.728;2023-06-26T00:44:11;4.00;;;3.60;;
12232;SDS011;6179;51.748;8.728;2023-06-26T00:50:12;3.93;;;3.03;;
12232;SDS011;6179;51.748;8.728;2023-06-26T00:56:17;5.33;;;3.40;;
12232;SDS011;6179;51.748;8.728;2023-06-26T01:02:19;9.80;;;3.90;;
12232;SDS011;6179;51.748;8.728;2023-06-26T01:08:20;4.63;;;3.47;;
12232;SDS011;6179;51.748;8.728;2023-06-26T01:14:23;4.73;;;3.13;;
12232;SDS011;6179;51.748;8.728;2023-06-26T01:20:24;3.07;;;2.23;;
12232;SDS011;6179;51.748;8.728;2023-06-26T01:26:25;2.93;;;2.23;;
12232;SDS011;6179;51.748;8.728;2023-06-26T01:32:30;10.07;;;4.10;;
12232;SDS011;6179;51.748;8.728;2023-06-26T01:38:32;3.47;;;2.77;;
12232;SDS011;6179;51.748;8.728;2023-06-26T01:44:35;6.53;;;3.83;;
12232;SDS011;6179;51.748;8.728;2023-06-26T01:50:44;6.23;;;4.80;;
12232;SDS011;6179;51.748;8.728;2023-06-26T01:56:45;4.43;;;3.50;;
12232;SDS011;6179;51.748;8.728;2023-06-26T02:02:52;4.30;;;3.23;;
12232;SDS011;6179;51.748;8.728;2023-06-26T02:08:53;3.93;;;3.60;;
12232;SDS011;6179;51.748;8.728;2023-06-26T02:14:56;4.67;;;3.63;;
12232;SDS011;6179;51.748;8.728;2023-06-26T02:20:57;3.00;;;2.80;;
12232;SDS011;6179;51.748;8.728;2023-06-26T02:26:57;3.67;;;3.37;;
12232;SDS011;6179;51.748;8.728;2023-06-26T02:32:58;4.20;;;3.80;;
12232;SDS011;6179;51.748;8.728;2023-06-26T02:38:59;3.93;;;2.83;;
12232;SDS011;6179;51.748;8.728;2023-06-26T02:45:00;4.53;;;3.90;;
12232;SDS011;6179;51.748;8.728;2023-06-26T02:51:01;5.90;;;3.27;;
12232;SDS011;6179;51.748;8.728;2023-06-26T02:57:01;6.37;;;3.80;;
12232;SDS011;6179;51.748;8.728;2023-06-26T03:03:02;9.53;;;3.43;;
12232;SDS011;6179;51.748;8.728;2023-06-26T03:09:03;5.80;;;4.17;;
12232;SDS011;6179;51.748;8.728;2023-06-26T03:15:04;5.10;;;3.30;;
12232;SDS011;6179;51.748;8.728;2023-06-26T03:21:05;4.90;;;3.57;;
12232;SDS011;6179;51.748;8.728;2023-06-26T03:27:06;4.50;;;3.67;;
12232;SDS011;6179;51.748;8.728;2023-06-26T03:33:09;5.67;;;2.83;;
12232;SDS011;6179;51.748;8.728;2023-06-26T03:39:10;3.83;;;2.97;;
12232;SDS011;6179;51.748;8.728;2023-06-26T03:45:11;6.20;;;4.10;;
12232;SDS011;6179;51.748;8.728;2023-06-26T03:51:12;4.87;;;3.30;;
12232;SDS011;6179;51.748;8.728;2023-06-26T03:57:14;5.30;;;3.60;;
12232;SDS011;6179;51.748;8.728;2023-06-26T04:03:15;5.23;;;4.03;;
12232;SDS011;6179;51.748;8.728;2023-06-26T04:09:16;4.50;;;3.73;;
12232;SDS011;6179;51.748;8.728;2023-06-26T04:15:17;4.83;;;3.40;;
12232;SDS011;6179;51.748;8.728;2023-06-26T04:21:17;5.13;;;3.87;;
12232;SDS011;6179;51.748;8.728;2023-06-26T04:27:19;4.90;;;3.27;;
12232;SDS011;6179;51.748;8.728;2023-06-26T04:33:20;6.43;;;4.10;;
12232;SDS011;6179;51.748;8.728;2023-06-26T04:39:21;5.87;;;4.27;;
12232;SDS011;6179;51.748;8.728;2023-06-26T04:45:22;4.87;;;4.37;;
12232;SDS011;6179;51.748;8.728;2023-06-26T04:51:23;4.33;;;3.53;;
12232;SDS011;6179;51.748;8.728;2023-06-26T04:57:26;6.80;;;4.20;;
12232;SDS011;6179;51.748;8.728;2023-06-26T05:03:27;6.00;;;3.43;;
12232;SDS011;6179;51.748;8.728;2023-06-26T05:09:28;8.20;;;4.27;;
12232;SDS011;6179;51.748;8.728;2023-06-26T05:15:29;6.50;;;3.93;;
12232;SDS011;6179;51.748;8.728;2023-06-26T05:21:30;7.63;;;3.70;;
12232;SDS011;6179;51.748;8.728;2023-06-26T05:27:31;3.80;;;3.17;;
12232;SDS011;6179;51.748;8.728;2023-06-26T05:33:33;6.57;;;2.80;;
12232;SDS011;6179;51.748;8.728;2023-06-26T05:39:37;5.33;;;2.80;;
12232;SDS011;6179;51.748;8.728;2023-06-26T05:45:38;3.30;;;2.60;;
12232;SDS011;6179;51.748;8.728;2023-06-26T05:51:40;4.83;;;2.90;;
12232;SDS011;6179;51.748;8.728;2023-06-26T05:57:41;5.27;;;2.10;;
12232;SDS011;6179;51.748;8.728;2023-06-26T06:03:42;8.43;;;2.80;;
12232;SDS011;6179;51.748;8.728;2023-06-26T06:09:43;6.30;;;3.40;;
12232;SDS011;6179;51.748;8.728;2023-06-26T06:15:44;6.20;;;3.30;;
12232;SDS011;6179;51.748;8.728;2023-06-26T06:21:44;3.43;;;2.47;;
12232;SDS011;6179;51.748;8.728;2023-06-26T06:27:45;4.17;;;2.60;;
12232;SDS011;6179;51.748;8.728;2023-06-26T06:33:46;5.60;;;3.33;;
12232;SDS011;6179;51.748;8.728;2023-06-26T06:39:46;3.40;;;2.63;;
12232;SDS011;6179;51.748;8.728;2023-06-26T06:45:47;5.40;;;3.03;;
12232;SDS011;6179;51.748;8.728;2023-06-26T06:51:48;5.27;;;3.13;;
12232;SDS011;6179;51.748;8.728;2023-06-26T06:57:49;7.13;;;4.07;;
12232;SDS011;6179;51.748;8.728;2023-06-26T07:03:50;5.23;;;3.40;;
12232;SDS011;6179;51.748;8.728;2023-06-26T07:09:51;5.10;;;3.07;;
12232;SDS011;6179;51.748;8.728;2023-06-26T07:15:52;3.07;;;2.60;;
12232;SDS011;6179;51.748;8.728;2023-06-26T07:21:52;6.87;;;2.87;;
12232;SDS011;6179;51.748;8.728;2023-06-26T07:27:53;6.37;;;3.90;;
12232;SDS011;6179;51.748;8.728;2023-06-26T07:33:54;14.50;;;3.40;;
12232;SDS011;6179;51.748;8.728;2023-06-26T07:39:55;4.20;;;3.43;;
12232;SDS011;6179;51.748;8.728;2023-06-26T07:45:55;3.10;;;2.83;;
12232;SDS011;6179;51.748;8.728;2023-06-26T07:51:58;4.17;;;3.23;;
12232;SDS011;6179;51.748;8.728;2023-06-26T07:57:59;9.00;;;4.53;;
12232;SDS011;6179;51.748;8.728;2023-06-26T08:04:01;3.10;;;2.50;;
12232;SDS011;6179;51.748;8.728;2023-06-26T08:10:02;4.10;;;3.60;;
12232;SDS011;6179;51.748;8.728;2023-06-26T08:16:03;5.60;;;3.50;;
12232;SDS011;6179;51.748;8.728;2023-06-26T08:22:04;10.27;;;4.40;;
12232;SDS011;6179;51.748;8.728;2023-06-26T08:28:05;5.13;;;3.57;;
12232;SDS011;6179;51.748;8.728;2023-06-26T08:34:06;9.10;;;3.73;;
12232;SDS011;6179;51.748;8.728;2023-06-26T08:40:07;12.57;;;3.80;;
12232;SDS011;6179;51.748;8.728;2023-06-26T08:46:10;6.37;;;3.70;;
12232;SDS011;6179;51.748;8.728;2023-06-26T08:52:22;7.30;;;4.37;;
12232;SDS011;6179;51.748;8.728;2023-06-26T08:58:24;7.03;;;3.17;;
12232;SDS011;6179;51.748;8.728;2023-06-26T09:04:25;9.53;;;3.80;;
12232;SDS011;6179;51.748;8.728;2023-06-26T09:10:26;6.33;;;4.10;;
12232;SDS011;6179;51.748;8.728;2023-06-26T09:16:27;5.17;;;3.07;;
12232;SDS011;6179;51.748;8.728;2023-06-26T09:22:28;12.03;;;4.07;;
12232;SDS011;6179;51.748;8.728;2023-06-26T09:28:34;16.20;;;4.37;;
12232;SDS011;6179;51.748;8.728;2023-06-26T09:34:35;5.60;;;2.80;;
12232;SDS011;6179;51.748;8.728;2023-06-26T09:40:36;6.83;;;3.33;;
12232;SDS011;6179;51.748;8.728;2023-06-26T09:46:38;11.33;;;4.20;;
12232;SDS011;6179;51.748;8.728;2023-06-26T09:52:39;9.93;;;4.20;;
12232;SDS011;6179;51.748;8.728;2023-06-26T09:58:41;8.33;;;4.27;;
12232;SDS011;6179;51.748;8.728;2023-06-26T10:04:43;12.23;;;3.23;;
12232;SDS011;6179;51.748;8.728;2023-06-26T10:10:45;7.33;;;3.57;;
12232;SDS011;6179;51.748;8.728;2023-06-26T10:16:48;5.50;;;3.10;;
12232;SDS011;6179;51.748;8.728;2023-06-26T10:22:50;7.13;;;3.13;;
12232;SDS011;6179;51.748;8.728;2023-06-26T10:28:55;9.10;;;3.80;;
12232;SDS011;6179;51.748;8.728;2023-06-26T10:34:57;7.73;;;4.30;;
12232;SDS011;6179;51.748;8.728;2023-06-26T10:40:59;4.27;;;2.53;;
12232;SDS011;6179;51.748;8.728;2023-06-26T10:47:12;4.93;;;3.37;;
12232;SDS011;6179;51.748;8.728;2023-06-26T10:53:33;6.93;;;2.70;;
12232;SDS011;6179;51.748;8.728;2023-06-26T10:59:38;6.63;;;2.93;;
12232;SDS011;6179;51.748;8.728;2023-06-26T11:05:40;5.60;;;2.30;;
12232;SDS011;6179;51.748;8.728;2023-06-26T11:17:51;3.60;;;2.07;;
12232;SDS011;6179;51.748;8.728;2023-06-26T11:23:53;6.30;;;3.37;;
12232;SDS011;6179;51.748;8.728;2023-06-26T11:29:58;6.10;;;3.27;;
12232;SDS011;6179;51.748;8.728;2023-06-26T11:36:07;6.83;;;3.53;;
12232;SDS011;6179;51.748;8.728;2023-06-26T11:42:10;8.80;;;1.90;;
12232;SDS011;6179;51.748;8.728;2023-06-26T11:48:11;3.67;;;2.17;;
12232;SDS011;6179;51.748;8.728;2023-06-26T11:54:12;4.90;;;2.20;;
12232;SDS011;6179;51.748;8.728;2023-06-26T12:00:14;7.50;;;2.30;;
12232;SDS011;6179;51.748;8.728;2023-06-26T12:06:16;9.40;;;2.20;;
12232;SDS011;6179;51.748;8.728;2023-06-26T12:12:18;6.60;;;1.57;;
12232;SDS011;6179;51.748;8.728;2023-06-26T12:18:19;4.30;;;1.23;;
12232;SDS011;6179;51.748;8.728;2023-06-26T12:24:21;2.60;;;1.10;;
12232;SDS011;6179;51.748;8.728;2023-06-26T12:30:23;1.93;;;1.60;;
12232;SDS011;6179;51.748;8.728;2023-06-26T12:36:24;9.63;;;1.87;;
12232;SDS011;6179;51.748;8.728;2023-06-26T12:42:26;2.43;;;1.17;;
12232;SDS011;6179;51.748;8.728;2023-06-26T12:54:49;5.97;;;1.07;;
12232;SDS011;6179;51.748;8.728;2023-06-26T13:00:53;1.37;;;0.70;;
12232;SDS011;6179;51.748;8.728;2023-06-26T13:06:57;6.77;;;0.87;;
12232;SDS011;6179;51.748;8.728;2023-06-26T13:12:58;2.57;;;1.30;;
12232;SDS011;6179;51.748;8.728;2023-06-26T13:18:59;3.53;;;1.60;;
12232;SDS011;6179;51.748;8.728;2023-06-26T13:25:01;4.20;;;1.30;;
12232;SDS011;6179;51.748;8.728;2023-06-26T13:31:02;4.20;;;1.03;;
12232;SDS011;6179;51.748;8.728;2023-06-26T13:37:03;2.57;;;1.03;;
12232;SDS011;6179;51.748;8.728;2023-06-26T13:43:04;1.63;;;0.90;;
12232;SDS011;6179;51.748;8.728;2023-06-26T13:49:05;1.60;;;1.40;;
12232;SDS011;6179;51.748;8.728;2023-06-26T13:55:06;2.57;;;1.17;;
12232;SDS011;6179;51.748;8.728;2023-06-26T14:01:07;1.57;;;1.47;;
12232;SDS011;6179;51.748;8.728;2023-06-26T14:07:08;3.47;;;1.43;;
12232;SDS011;6179;51.748;8.728;2023-06-26T14:13:09;4.60;;;1.50;;
12232;SDS011;6179;51.748;8.728;2023-06-26T14:19:14;2.10;;;1.20;;
12232;SDS011;6179;51.748;8.728;2023-06-26T14:25:17;2.00;;;1.13;;
12232;SDS011;6179;51.748;8.728;2023-06-26T14:31:18;6.00;;;0.80;;
12232;SDS011;6179;51.748;8.728;2023-06-26T14:37:19;2.53;;;0.90;;
12232;SDS011;6179;51.748;8.728;2023-06-26T14:43:20;0.93;;;0.60;;
12232;SDS011;6179;51.748;8.728;2023-06-26T14:49:20;3.47;;;0.70;;
12232;SDS011;6179;51.748;8.728;2023-06-26T14:55:21;1.20;;;0.73;;
12232;SDS011;6179;51.748;8.728;2023-06-26T15:01:22;1.10;;;0.53;;
12232;SDS011;6179;51.748;8.728;2023-06-26T15:07:23;2.00;;;0.50;;
12232;SDS011;6179;51.748;8.728;2023-06-26T15:13:24;2.23;;;0.50;;
12232;SDS011;6179;51.748;8.728;2023-06-26T15:19:25;5.53;;;0.60;;
12232;SDS011;6179;51.748;8.728;2023-06-26T15:25:25;4.10;;;1.10;;
12232;SDS011;6179;51.748;8.728;2023-06-26T15:31:28;0.90;;;0.50;;
12232;SDS011;6179;51.748;8.728;2023-06-26T15:37:30;3.13;;;0.70;;
12232;SDS011;6179;51.748;8.728;2023-06-26T15:43:32;1.33;;;0.50;;
12232;SDS011;6179;51.748;8.728;2023-06-26T15:49:33;0.70;;;0.63;;
12232;SDS011;6179;51.748;8.728;2023-06-26T15:55:34;0.70;;;0.50;;
12232;SDS011;6179;51.748;8.728;2023-06-26T16:01:35;1.37;;;0.50;;
12232;SDS011;6179;51.748;8.728;2023-06-26T16:07:36;0.87;;;0.40;;
12232;SDS011;6179;51.748;8.728;2023-06-26T16:13:37;0.60;;;0.60;;
12232;SDS011;6179;51.748;8.728;2023-06-26T16:19:37;0.77;;;0.57;;
12232;SDS011;6179;51.748;8.728;2023-06-26T16:25:38;0.80;;;0.60;;
12232;SDS011;6179;51.748;8.728;2023-06-26T16:31:39;0.60;;;0.60;;
12232;SDS011;6179;51.748;8.728;2023-06-26T16:37:40;2.17;;;0.60;;
12232;SDS011;6179;51.748;8.728;2023-06-26T16:43:41;2.10;;;0.50;;
12232;SDS011;6179;51.748;8.728;2023-06-26T16:49:42;0.93;;;0.70;;
12232;SDS011;6179;51.748;8.728;2023-06-26T16:55:43;2.90;;;0.70;;
12232;SDS011;6179;51.748;8.728;2023-06-26T17:01:45;2.63;;;0.50;;
12232;SDS011;6179;51.748;8.728;2023-06-26T17:07:46;0.90;;;0.50;;
12232;SDS011;6179;51.748;8.728;2023-06-26T17:13:47;3.60;;;0.50;;
12232;SDS011;6179;51.748;8.728;2023-06-26T17:19:48;0.70;;;0.60;;
12232;SDS011;6179;51.748;8.728;2023-06-26T17:25:49;0.50;;;0.50;;
12232;SDS011;6179;51.748;8.728;2023-06-26T17:31:50;1.70;;;0.47;;
12232;SDS011;6179;51.748;8.728;2023-06-26T17:37:51;0.70;;;0.60;;
12232;SDS011;6179;51.748;8.728;2023-06-26T17:43:52;2.20;;;0.60;;
12232;SDS011;6179;51.748;8.728;2023-06-26T17:49:53;0.83;;;0.50;;
12232;SDS011;6179;51.748;8.728;2023-06-26T17:55:54;6.23;;;0.50;;
12232;SDS011;6179;51.748;8.728;2023-06-26T18:01:54;0.43;;;0.43;;
12232;SDS011;6179;51.748;8.728;2023-06-26T18:07:58;1.33;;;0.60;;
12232;SDS011;6179;51.748;8.728;2023-06-26T18:13:59;0.40;;;0.40;;
12232;SDS011;6179;51.748;8.728;2023-06-26T18:20:00;1.47;;;0.60;;
12232;SDS011;6179;51.748;8.728;2023-06-26T18:26:02;4.73;;;0.60;;
12232;SDS011;6179;51.748;8.728;2023-06-26T18:32:04;15.83;;;0.63;;
12232;SDS011;6179;51.748;8.728;2023-06-26T18:38:05;0.60;;;0.43;;
12232;SDS011;6179;51.748;8.728;2023-06-26T18:44:11;5.30;;;0.50;;
12232;SDS011;6179;51.748;8.728;2023-06-26T18:50:11;0.40;;;0.40;;
12232;SDS011;6179;51.748;8.728;2023-06-26T18:56:12;0.40;;;0.40;;
12232;SDS011;6179;51.748;8.728;2023-06-26T19:02:13;0.70;;;0.60;;
12232;SDS011;6179;51.748;8.728;2023-06-26T19:08:14;0.30;;;0.30;;
12232;SDS011;6179;51.748;8.728;2023-06-26T19:14:16;3.90;;;0.50;;
12232;SDS011;6179;51.748;8.728;2023-06-26T19:20:17;1.70;;;0.30;;
12232;SDS011;6179;51.748;8.728;2023-06-26T19:26:19;1.73;;;0.50;;
12232;SDS011;6179;51.748;8.728;2023-06-26T19:32:19;0.90;;;0.50;;
12232;SDS011;6179;51.748;8.728;2023-06-26T19:38:20;2.10;;;0.40;;
12232;SDS011;6179;51.748;8.728;2023-06-26T19:44:21;0.53;;;0.53;;
12232;SDS011;6179;51.748;8.728;2023-06-26T19:50:22;1.83;;;1.33;;
12232;SDS011;6179;51.748;8.728;2023-06-26T19:56:23;7.10;;;0.60;;
12232;SDS011;6179;51.748;8.728;2023-06-26T20:02:25;1.07;;;0.50;;
12232;SDS011;6179;51.748;8.728;2023-06-26T20:08:25;0.90;;;0.80;;
12232;SDS011;6179;51.748;8.728;2023-06-26T20:14:26;0.60;;;0.60;;
12232;SDS011;6179;51.748;8.728;2023-06-26T20:20:27;2.27;;;0.40;;
12232;SDS011;6179;51.748;8.728;2023-06-26T20:26:28;0.77;;;0.40;;
12232;SDS011;6179;51.748;8.728;2023-06-26T20:32:29;0.50;;;0.50;;
12232;SDS011;6179;51.748;8.728;2023-06-26T20:38:29;0.30;;;0.30;;
12232;SDS011;6179;51.748;8.728;2023-06-26T20:44:30;0.37;;;0.37;;
12232;SDS011;6179;51.748;8.728;2023-06-26T20:50:31;3.90;;;0.50;;
12232;SDS011;6179;51.748;8.728;2023-06-26T20:56:33;5.80;;;0.50;;
12232;SDS011;6179;51.748;8.728;2023-06-26T21:02:33;0.80;;;0.50;;
12232;SDS011;6179;51.748;8.728;2023-06-26T21:08:34;0.50;;;0.50;;
12232;SDS011;6179;51.748;8.728;2023-06-26T21:14:35;2.93;;;0.40;;
12232;SDS011;6179;51.748;8.728;2023-06-26T21:20:37;1.73;;;0.40;;
12232;SDS011;6179;51.748;8.728;2023-06-26T21:26:39;2.20;;;0.40;;
12232;SDS011;6179;51.748;8.728;2023-06-26T21:32:40;0.40;;;0.40;;
12232;SDS011;6179;51.748;8.728;2023-06-26T21:38:41;0.97;;;0.57;;
12232;SDS011;6179;51.748;8.728;2023-06-26T21:44:42;1.83;;;0.67;;
12232;SDS011;6179;51.748;8.728;2023-06-26T21:50:43;0.50;;;0.40;;
12232;SDS011;6179;51.748;8.728;2023-06-26T21:56:44;4.93;;;0.67;;
12232;SDS011;6179;51.748;8.728;2023-06-26T22:02:45;2.30;;;0.50;;
12232;SDS011;6179;51.748;8.728;2023-06-26T22:08:45;1.90;;;0.40;;
12232;SDS011;6179;51.748;8.728;2023-06-26T22:14:46;0.83;;;0.50;;
12232;SDS011;6179;51.748;8.728;2023-06-26T22:20:47;3.37;;;0.80;;
12232;SDS011;6179;51.748;8.728;2023-06-26T22:26:49;1.27;;;0.60;;
12232;SDS011;6179;51.748;8.728;2023-06-26T22:32:49;0.50;;;0.50;;
12232;SDS011;6179;51.748;8.728;2023-06-26T22:38:50;1.00;;;0.50;;
12232;SDS011;6179;51.748;8.728;2023-06-26T22:44:51;3.50;;;0.50;;
12232;SDS011;6179;51.748;8.728;2023-06-26T22:50:52;0.50;;;0.50;;
12232;SDS011;6179;51.748;8.728;2023-06-26T22:56:53;12.53;;;0.50;;
12232;SDS011;6179;51.748;8.728;2023-06-26T23:02:53;3.70;;;0.57;;
12232;SDS011;6179;51.748;8.728;2023-06-26T23:08:54;2.93;;;0.40;;
12232;SDS011;6179;51.748;8.728;2023-06-26T23:14:55;0.40;;;0.40;;
12232;SDS011;6179;51.748;8.728;2023-06-26T23:20:56;2.40;;;0.60;;
12232;SDS011;6179;51.748;8.728;2023-06-26T23:26:57;3.23;;;0.67;;
12232;SDS011;6179;51.748;8.728;2023-06-26T23:32:59;0.90;;;0.50;;
12232;SDS011;6179;51.748;8.728;2023-06-26T23:39:02;0.60;;;0.60;;
12232;SDS011;6179;51.748;8.728;2023-06-26T23:45:05;1.13;;;0.60;;
12232;SDS011;6179;51.748;8.728;2023-06-26T23:51:06;1.17;;;0.60;;
12232;SDS011;6179;51.748;8.728;2023-06-26T23:57:08;0.63;;;0.40;;
